sensor_id;sensor_type;location;lat;lon;timestamp;pressure;altitude;pressure_sealevel;temperature;humidity
76052;BME280;64751;48.708;9.710;2024-03-17T00:02:04;98323.09;;;7.28;100.00
76052;BME280;64751;48.708;9.710;2024-03-17T00:04:32;98321.66;;;7.20;100.00
76052;BME280;64751;48.708;9.710;2024-03-17T00:06:58;98322.59;;;7.14;100.00
76052;BME280;64751;48.708;9.710;2024-03-17T00:09:26;98320.44;;;7.11;100.00
76052;BME280;64751;48.708;9.710;2024-03-17T00:11:52;98320.44;;;7.11;100.00
76052;BME280;64751;48.708;9.710;2024-03-17T00:14:20;98319.31;;;7.07;100.00
76052;BME280;64751;48.708;9.710;2024-03-17T00:16:49;98323.34;;;6.98;100.00
76052;BME280;64751;48.708;9.710;2024-03-17T00:19:16;98320.16;;;6.96;100.00
76052;BME280;64751;48.708;9.710;2024-03-17T00:21:48;98323.47;;;6.92;100.00
76052;BME280;64751;48.708;9.710;2024-03-17T00:24:21;98328.97;;;6.90;100.00
76052;BME280;64751;48.708;9.710;2024-03-17T00:26:53;98326.91;;;6.92;100.00
76052;BME280;64751;48.708;9.710;2024-03-17T00:29:26;98317.97;;;6.93;100.00
76052;BME280;64751;48.708;9.710;2024-03-17T00:31:55;98310.81;;;6.89;100.00
76052;BME280;64751;48.708;9.710;2024-03-17T00:34:23;98310.69;;;6.84;100.00
76052;BME280;64751;48.708;9.710;2024-03-17T00:36:49;98308.06;;;6.84;100.00
76052;BME280;64751;48.708;9.710;2024-03-17T00:39:17;98308.19;;;6.77;100.00
76052;BME280;64751;48.708;9.710;2024-03-17T00:41:44;98300.56;;;6.76;100.00
76052;BME280;64751;48.708;9.710;2024-03-17T00:44:16;98301.81;;;6.73;100.00
76052;BME280;64751;48.708;9.710;2024-03-17T00:46:43;98301.38;;;6.76;100.00
76052;BME280;64751;48.708;9.710;2024-03-17T00:49:17;98301.81;;;6.73;100.00
76052;BME280;64751;48.708;9.710;2024-03-17T00:51:43;98292.13;;;6.74;100.00
76052;BME280;64751;48.708;9.710;2024-03-17T00:54:13;98293.41;;;6.71;100.00
76052;BME280;64751;48.708;9.710;2024-03-17T00:56:45;98282.72;;;6.61;100.00
76052;BME280;64751;48.708;9.710;2024-03-17T00:59:12;98277.69;;;6.59;100.00
76052;BME280;64751;48.708;9.710;2024-03-17T01:01:39;98278.84;;;6.52;100.00
76052;BME280;64751;48.708;9.710;2024-03-17T01:04:11;98281.38;;;6.47;100.00
76052;BME280;64751;48.708;9.710;2024-03-17T01:06:39;98287.41;;;6.47;100.00
76052;BME280;64751;48.708;9.710;2024-03-17T01:09:07;98288.53;;;6.63;100.00
76052;BME280;64751;48.708;9.710;2024-03-17T01:11:34;98282.13;;;6.59;100.00
76052;BME280;64751;48.708;9.710;2024-03-17T01:14:07;98288.03;;;6.66;100.00
76052;BME280;64751;48.708;9.710;2024-03-17T01:16:38;98280.72;;;6.68;100.00
76052;BME280;64751;48.708;9.710;2024-03-17T01:19:11;98284.72;;;6.71;100.00
76052;BME280;64751;48.708;9.710;2024-03-17T01:21:44;98270.00;;;6.70;100.00
76052;BME280;64751;48.708;9.710;2024-03-17T01:24:12;98276.06;;;6.70;100.00
76052;BME280;64751;48.708;9.710;2024-03-17T01:26:39;98276.78;;;6.66;100.00
76052;BME280;64751;48.708;9.710;2024-03-17T01:29:06;98273.69;;;6.57;100.00
76052;BME280;64751;48.708;9.710;2024-03-17T01:31:35;98267.22;;;6.48;100.00
76052;BME280;64751;48.708;9.710;2024-03-17T01:34:02;98269.81;;;6.48;100.00
76052;BME280;64751;48.708;9.710;2024-03-17T01:36:34;98261.19;;;6.47;100.00
76052;BME280;64751;48.708;9.710;2024-03-17T01:39:08;98260.97;;;6.37;100.00
76052;BME280;64751;48.708;9.710;2024-03-17T01:41:34;98256.97;;;6.35;100.00
76052;BME280;64751;48.708;9.710;2024-03-17T01:44:07;98256.28;;;6.28;100.00
76052;BME280;64751;48.708;9.710;2024-03-17T01:46:34;98262.16;;;6.18;99.91
76052;BME280;64751;48.708;9.710;2024-03-17T01:49:01;98255.19;;;6.12;99.17
76052;BME280;64751;48.708;9.710;2024-03-17T01:51:30;98249.38;;;6.10;99.08
76052;BME280;64751;48.708;9.710;2024-03-17T01:54:03;98254.84;;;6.09;100.00
76052;BME280;64751;48.708;9.710;2024-03-17T01:56:31;98248.34;;;6.11;100.00
76052;BME280;64751;48.708;9.710;2024-03-17T01:58:59;98246.31;;;6.13;100.00
76052;BME280;64751;48.708;9.710;2024-03-17T02:01:27;98250.19;;;6.11;99.93
76052;BME280;64751;48.708;9.710;2024-03-17T02:03:56;98243.56;;;6.08;100.00
76052;BME280;64751;48.708;9.710;2024-03-17T02:06:27;98242.19;;;6.06;100.00
76052;BME280;64751;48.708;9.710;2024-03-17T02:08:55;98237.75;;;6.06;100.00
76052;BME280;64751;48.708;9.710;2024-03-17T02:11:25;98233.19;;;6.13;100.00
76052;BME280;64751;48.708;9.710;2024-03-17T02:13:55;98231.44;;;6.19;100.00
76052;BME280;64751;48.708;9.710;2024-03-17T02:16:26;98230.44;;;6.20;100.00
76052;BME280;64751;48.708;9.710;2024-03-17T02:18:59;98227.81;;;6.20;100.00
76052;BME280;64751;48.708;9.710;2024-03-17T02:21:31;98218.34;;;6.19;100.00
76052;BME280;64751;48.708;9.710;2024-03-17T02:24:05;98226.88;;;6.26;100.00
76052;BME280;64751;48.708;9.710;2024-03-17T02:26:36;98215.94;;;6.29;100.00
76052;BME280;64751;48.708;9.710;2024-03-17T02:29:04;98222.78;;;6.30;100.00
76052;BME280;64751;48.708;9.710;2024-03-17T02:31:36;98211.16;;;6.26;100.00
76052;BME280;64751;48.708;9.710;2024-03-17T02:34:09;98214.19;;;6.34;100.00
76052;BME280;64751;48.708;9.710;2024-03-17T02:36:40;98209.31;;;6.38;100.00
76052;BME280;64751;48.708;9.710;2024-03-17T02:39:09;98206.78;;;6.43;100.00
76052;BME280;64751;48.708;9.710;2024-03-17T02:41:54;98202.09;;;6.45;100.00
76052;BME280;64751;48.708;9.710;2024-03-17T02:44:27;98192.28;;;6.52;100.00
76052;BME280;64751;48.708;9.710;2024-03-17T02:47:01;98200.69;;;6.54;100.00
76052;BME280;64751;48.708;9.710;2024-03-17T02:49:35;98211.75;;;6.56;100.00
76052;BME280;64751;48.708;9.710;2024-03-17T02:52:11;98204.00;;;6.61;100.00
76052;BME280;64751;48.708;9.710;2024-03-17T02:54:45;98204.56;;;6.63;100.00
76052;BME280;64751;48.708;9.710;2024-03-17T02:57:12;98193.50;;;6.61;100.00
76052;BME280;64751;48.708;9.710;2024-03-17T02:59:45;98193.00;;;6.64;100.00
76052;BME280;64751;48.708;9.710;2024-03-17T03:02:17;98194.25;;;6.62;100.00
76052;BME280;64751;48.708;9.710;2024-03-17T03:04:45;98195.06;;;6.62;100.00
76052;BME280;64751;48.708;9.710;2024-03-17T03:07:18;98183.47;;;6.58;100.00
76052;BME280;64751;48.708;9.710;2024-03-17T03:09:47;98189.00;;;6.62;100.00
76052;BME280;64751;48.708;9.710;2024-03-17T03:12:19;98185.38;;;6.63;100.00
76052;BME280;64751;48.708;9.710;2024-03-17T03:14:52;98181.94;;;6.62;100.00
76052;BME280;64751;48.708;9.710;2024-03-17T03:17:25;98186.94;;;6.64;100.00
76052;BME280;64751;48.708;9.710;2024-03-17T03:19:57;98190.38;;;6.64;100.00
76052;BME280;64751;48.708;9.710;2024-03-17T03:22:30;98196.75;;;6.68;100.00
76052;BME280;64751;48.708;9.710;2024-03-17T03:24:59;98196.28;;;6.71;100.00
76052;BME280;64751;48.708;9.710;2024-03-17T03:27:26;98200.53;;;6.72;100.00
76052;BME280;64751;48.708;9.710;2024-03-17T03:29:54;98197.41;;;6.75;100.00
76052;BME280;64751;48.708;9.710;2024-03-17T03:32:27;98191.13;;;6.76;100.00
76052;BME280;64751;48.708;9.710;2024-03-17T03:34:55;98193.75;;;6.76;100.00
76052;BME280;64751;48.708;9.710;2024-03-17T03:37:22;98198.22;;;6.76;100.00
76052;BME280;64751;48.708;9.710;2024-03-17T03:39:50;98196.63;;;6.75;100.00
76052;BME280;64751;48.708;9.710;2024-03-17T03:42:24;98197.41;;;6.75;100.00
76052;BME280;64751;48.708;9.710;2024-03-17T03:44:52;98192.16;;;6.75;100.00
76052;BME280;64751;48.708;9.710;2024-03-17T03:47:24;98196.63;;;6.75;100.00
76052;BME280;64751;48.708;9.710;2024-03-17T03:49:57;98187.97;;;6.74;100.00
76052;BME280;64751;48.708;9.710;2024-03-17T03:52:29;98179.72;;;6.71;100.00
76052;BME280;64751;48.708;9.710;2024-03-17T03:55:02;98179.44;;;6.67;100.00
76052;BME280;64751;48.708;9.710;2024-03-17T03:57:31;98187.97;;;6.74;100.00
76052;BME280;64751;48.708;9.710;2024-03-17T04:00:05;98188.50;;;6.76;100.00
76052;BME280;64751;48.708;9.710;2024-03-17T04:02:38;98196.38;;;6.76;100.00
76052;BME280;64751;48.708;9.710;2024-03-17T04:05:11;98199.72;;;6.72;100.00
76052;BME280;64751;48.708;9.710;2024-03-17T04:07:46;98190.22;;;6.71;100.00
76052;BME280;64751;48.708;9.710;2024-03-17T04:10:19;98183.16;;;6.71;100.00
76052;BME280;64751;48.708;9.710;2024-03-17T04:12:48;98181.59;;;6.70;100.00
76052;BME280;64751;48.708;9.710;2024-03-17T04:15:16;98172.91;;;6.70;100.00
76052;BME280;64751;48.708;9.710;2024-03-17T04:17:44;98172.56;;;6.66;100.00
76052;BME280;64751;48.708;9.710;2024-03-17T04:20:11;98183.06;;;6.66;100.00
76052;BME280;64751;48.708;9.710;2024-03-17T04:22:41;98178.63;;;6.67;100.00
76052;BME280;64751;48.708;9.710;2024-03-17T04:25:09;98184.69;;;6.67;100.00
76052;BME280;64751;48.708;9.710;2024-03-17T04:27:37;98184.97;;;6.71;100.00
76052;BME280;64751;48.708;9.710;2024-03-17T04:30:07;98187.28;;;6.67;100.00
76052;BME280;64751;48.708;9.710;2024-03-17T04:32:34;98184.13;;;6.65;100.00
76052;BME280;64751;48.708;9.710;2024-03-17T04:35:07;98188.25;;;6.61;100.00
76052;BME280;64751;48.708;9.710;2024-03-17T04:37:35;98190.63;;;6.63;100.00
76052;BME280;64751;48.708;9.710;2024-03-17T04:40:10;98193.00;;;6.64;100.00
76052;BME280;64751;48.708;9.710;2024-03-17T04:42:43;98191.88;;;6.60;100.00
76052;BME280;64751;48.708;9.710;2024-03-17T04:45:11;98190.22;;;6.54;100.00
76052;BME280;64751;48.708;9.710;2024-03-17T04:47:39;98186.53;;;6.55;100.00
76052;BME280;64751;48.708;9.710;2024-03-17T04:50:11;98195.91;;;6.51;100.00
76052;BME280;64751;48.708;9.710;2024-03-17T04:52:39;98192.72;;;6.49;100.00
76052;BME280;64751;48.708;9.710;2024-03-17T04:55:07;98194.53;;;6.48;100.00
76052;BME280;64751;48.708;9.710;2024-03-17T04:57:35;98196.16;;;6.49;100.00
76052;BME280;64751;48.708;9.710;2024-03-17T05:00:09;98199.00;;;6.48;100.00
76052;BME280;64751;48.708;9.710;2024-03-17T05:02:39;98195.81;;;6.46;100.00
76052;BME280;64751;48.708;9.710;2024-03-17T05:05:12;98199.00;;;6.48;100.00
76052;BME280;64751;48.708;9.710;2024-03-17T05:07:44;98194.78;;;6.47;100.00
76052;BME280;64751;48.708;9.710;2024-03-17T05:10:11;98190.00;;;6.44;100.00
76052;BME280;64751;48.708;9.710;2024-03-17T05:12:39;98198.69;;;6.44;100.00
76052;BME280;64751;48.708;9.710;2024-03-17T05:15:07;98200.28;;;6.45;100.00
76052;BME280;64751;48.708;9.710;2024-03-17T05:17:41;98196.44;;;6.36;100.00
76052;BME280;64751;48.708;9.710;2024-03-17T05:20:13;98197.44;;;6.35;100.00
76052;BME280;64751;48.708;9.710;2024-03-17T05:22:41;98194.50;;;6.32;100.00
76052;BME280;64751;48.708;9.710;2024-03-17T05:25:15;98197.34;;;6.30;100.00
76052;BME280;64751;48.708;9.710;2024-03-17T05:27:48;98193.28;;;6.23;100.00
76052;BME280;64751;48.708;9.710;2024-03-17T05:30:20;98189.84;;;6.22;100.00
76052;BME280;64751;48.708;9.710;2024-03-17T05:32:51;98188.47;;;6.20;100.00
76052;BME280;64751;48.708;9.710;2024-03-17T05:35:19;98191.09;;;6.20;100.00
76052;BME280;64751;48.708;9.710;2024-03-17T05:37:51;98196.34;;;6.20;100.00
76052;BME280;64751;48.708;9.710;2024-03-17T05:40:19;98192.03;;;6.14;100.00
76052;BME280;64751;48.708;9.710;2024-03-17T05:42:52;98194.66;;;6.14;100.00
76052;BME280;64751;48.708;9.710;2024-03-17T05:45:20;98205.16;;;6.14;100.00
76052;BME280;64751;48.708;9.710;2024-03-17T05:47:49;98189.97;;;6.16;100.00
76052;BME280;64751;48.708;9.710;2024-03-17T05:50:17;98199.44;;;6.17;100.00
76052;BME280;64751;48.708;9.710;2024-03-17T05:52:44;98193.28;;;6.11;100.00
76052;BME280;64751;48.708;9.710;2024-03-17T05:55:12;98201.47;;;6.15;100.00
76052;BME280;64751;48.708;9.710;2024-03-17T05:57:39;98193.63;;;6.15;100.00
76052;BME280;64751;48.708;9.710;2024-03-17T06:00:08;98199.91;;;6.14;100.00
76052;BME280;64751;48.708;9.710;2024-03-17T06:02:38;98198.06;;;6.14;100.00
76052;BME280;64751;48.708;9.710;2024-03-17T06:05:12;98206.28;;;6.18;100.00
76052;BME280;64751;48.708;9.710;2024-03-17T06:07:45;98198.97;;;6.20;100.00
76052;BME280;64751;48.708;9.710;2024-03-17T06:10:13;98192.22;;;6.24;100.00
76052;BME280;64751;48.708;9.710;2024-03-17T06:12:46;98190.72;;;6.28;100.00
76052;BME280;64751;48.708;9.710;2024-03-17T06:15:18;98196.09;;;6.33;100.00
76052;BME280;64751;48.708;9.710;2024-03-17T06:17:52;98194.81;;;6.35;100.00
76052;BME280;64751;48.708;9.710;2024-03-17T06:20:23;98193.81;;;6.36;100.00
76052;BME280;64751;48.708;9.710;2024-03-17T06:22:58;98192.31;;;6.40;100.00
76052;BME280;64751;48.708;9.710;2024-03-17T06:25:25;98195.81;;;6.46;100.00
76052;BME280;64751;48.708;9.710;2024-03-17T06:27:54;98192.16;;;6.47;100.00
76052;BME280;64751;48.708;9.710;2024-03-17T06:30:23;98196.47;;;6.53;100.00
76052;BME280;64751;48.708;9.710;2024-03-17T06:32:55;98185.53;;;6.56;100.00
76052;BME280;64751;48.708;9.710;2024-03-17T06:35:24;98191.28;;;6.70;100.00
76052;BME280;64751;48.708;9.710;2024-03-17T06:37:52;98186.06;;;6.86;100.00
76052;BME280;64751;48.708;9.710;2024-03-17T06:40:25;98184.66;;;7.12;99.40
76052;BME280;64751;48.708;9.710;2024-03-17T06:42:54;98181.81;;;7.30;99.08
76052;BME280;64751;48.708;9.710;2024-03-17T06:45:26;98182.69;;;7.19;100.00
76052;BME280;64751;48.708;9.710;2024-03-17T06:47:54;98184.25;;;7.20;100.00
76052;BME280;64751;48.708;9.710;2024-03-17T06:50:23;98173.03;;;7.24;100.00
76052;BME280;64751;48.708;9.710;2024-03-17T06:52:51;98175.28;;;7.32;100.00
76052;BME280;64751;48.708;9.710;2024-03-17T06:55:19;98174.00;;;7.35;100.00
76052;BME280;64751;48.708;9.710;2024-03-17T06:57:52;98187.53;;;7.44;100.00
76052;BME280;64751;48.708;9.710;2024-03-17T07:00:19;98189.41;;;7.65;99.67
76052;BME280;64751;48.708;9.710;2024-03-17T07:02:51;98186.22;;;7.79;99.16
76052;BME280;64751;48.708;9.710;2024-03-17T07:05:18;98179.09;;;8.18;97.57
76052;BME280;64751;48.708;9.710;2024-03-17T07:07:47;98181.19;;;8.38;95.50
76052;BME280;64751;48.708;9.710;2024-03-17T07:10:20;98182.81;;;8.22;97.61
76052;BME280;64751;48.708;9.710;2024-03-17T07:12:53;98175.28;;;8.52;95.56
76052;BME280;64751;48.708;9.710;2024-03-17T07:15:20;98178.66;;;8.48;96.12
76052;BME280;64751;48.708;9.710;2024-03-17T07:17:52;98176.47;;;8.40;99.10
76052;BME280;64751;48.708;9.710;2024-03-17T07:20:20;98180.13;;;8.60;97.41
76052;BME280;64751;48.708;9.710;2024-03-17T07:22:50;98164.75;;;9.06;95.23
76052;BME280;64751;48.708;9.710;2024-03-17T07:25:22;98173.13;;;9.71;92.65
76052;BME280;64751;48.708;9.710;2024-03-17T07:27:49;98183.69;;;10.18;89.53
76052;BME280;64751;48.708;9.710;2024-03-17T07:30:22;98180.41;;;10.53;87.38
76052;BME280;64751;48.708;9.710;2024-03-17T07:32:50;98179.41;;;10.02;89.95
76052;BME280;64751;48.708;9.710;2024-03-17T07:35:22;98190.38;;;9.84;92.42
76052;BME280;64751;48.708;9.710;2024-03-17T07:37:56;98180.56;;;9.74;93.47
76052;BME280;64751;48.708;9.710;2024-03-17T07:40:24;98181.53;;;9.63;94.23
76052;BME280;64751;48.708;9.710;2024-03-17T07:42:56;98167.88;;;10.23;91.50
76052;BME280;64751;48.708;9.710;2024-03-17T07:45:29;98170.16;;;10.04;92.42
76052;BME280;64751;48.708;9.710;2024-03-17T07:47:56;98171.75;;;10.05;92.83
76052;BME280;64751;48.708;9.710;2024-03-17T07:50:30;98166.50;;;10.10;92.59
76052;BME280;64751;48.708;9.710;2024-03-17T07:53:00;98170.25;;;10.19;91.25
76052;BME280;64751;48.708;9.710;2024-03-17T07:55:34;98172.09;;;10.19;88.04
76052;BME280;64751;48.708;9.710;2024-03-17T07:58:07;98171.31;;;10.18;88.22
76052;BME280;64751;48.708;9.710;2024-03-17T08:00:39;98173.44;;;10.22;87.58
76052;BME280;64751;48.708;9.710;2024-03-17T08:03:12;98176.31;;;10.20;88.88
76052;BME280;64751;48.708;9.710;2024-03-17T08:05:39;98170.50;;;10.18;90.22
76052;BME280;64751;48.708;9.710;2024-03-17T08:08:14;98173.16;;;10.13;89.93
76052;BME280;64751;48.708;9.710;2024-03-17T08:10:42;98170.25;;;10.14;90.86
76052;BME280;64751;48.708;9.710;2024-03-17T08:13:09;98165.50;;;10.16;90.93
76052;BME280;64751;48.708;9.710;2024-03-17T08:15:42;98169.72;;;10.12;91.54
76052;BME280;64751;48.708;9.710;2024-03-17T08:18:14;98161.78;;;10.12;91.42
76052;BME280;64751;48.708;9.710;2024-03-17T08:20:42;98161.00;;;10.17;88.98
76052;BME280;64751;48.708;9.710;2024-03-17T08:23:11;98159.72;;;10.30;90.07
76052;BME280;64751;48.708;9.710;2024-03-17T08:25:40;98160.25;;;10.32;87.88
76052;BME280;64751;48.708;9.710;2024-03-17T08:28:07;98158.72;;;10.41;88.25
76052;BME280;64751;48.708;9.710;2024-03-17T08:30:35;98164.56;;;10.53;87.94
76052;BME280;64751;48.708;9.710;2024-03-17T08:33:07;98155.56;;;10.44;84.38
76052;BME280;64751;48.708;9.710;2024-03-17T08:35:35;98159.28;;;10.63;85.24
76052;BME280;64751;48.708;9.710;2024-03-17T08:38:03;98156.13;;;10.61;83.60
76052;BME280;64751;48.708;9.710;2024-03-17T08:40:31;98154.81;;;10.63;85.72
76052;BME280;64751;48.708;9.710;2024-03-17T08:43:05;98155.09;;;10.67;85.50
76052;BME280;64751;48.708;9.710;2024-03-17T08:45:38;98163.28;;;10.80;84.68
76052;BME280;64751;48.708;9.710;2024-03-17T08:48:10;98152.22;;;10.88;84.17
76052;BME280;64751;48.708;9.710;2024-03-17T08:50:38;98146.69;;;11.00;84.03
76052;BME280;64751;48.708;9.710;2024-03-17T08:53:11;98150.38;;;11.14;83.55
76052;BME280;64751;48.708;9.710;2024-03-17T08:55:39;98146.94;;;11.19;83.61
76052;BME280;64751;48.708;9.710;2024-03-17T08:58:09;98146.41;;;11.22;81.75
76052;BME280;64751;48.708;9.710;2024-03-17T09:00:37;98145.88;;;11.30;82.23
76052;BME280;64751;48.708;9.710;2024-03-17T09:03:08;98141.38;;;11.30;77.40
76052;BME280;64751;48.708;9.710;2024-03-17T09:05:36;98142.72;;;11.43;76.66
76052;BME280;64751;48.708;9.710;2024-03-17T09:08:15;98140.84;;;11.43;76.63
76052;BME280;64751;48.708;9.710;2024-03-17T09:10:49;98131.56;;;11.46;75.69
76052;BME280;64751;48.708;9.710;2024-03-17T09:13:19;98133.16;;;11.67;76.47
76052;BME280;64751;48.708;9.710;2024-03-17T09:15:53;98128.09;;;11.81;75.41
76052;BME280;64751;48.708;9.710;2024-03-17T09:18:21;98130.69;;;11.96;74.79
76052;BME280;64751;48.708;9.710;2024-03-17T09:20:58;98136.28;;;11.94;72.15
76052;BME280;64751;48.708;9.710;2024-03-17T09:23:27;98121.97;;;11.95;72.86
76052;BME280;64751;48.708;9.710;2024-03-17T09:25:56;98127.78;;;11.97;69.74
76052;BME280;64751;48.708;9.710;2024-03-17T09:28:26;98117.69;;;11.99;72.08
76052;BME280;64751;48.708;9.710;2024-03-17T09:30:59;98124.81;;;12.04;71.53
76052;BME280;64751;48.708;9.710;2024-03-17T09:33:31;98114.53;;;11.97;63.35
76052;BME280;64751;48.708;9.710;2024-03-17T09:36:06;98113.19;;;12.00;64.90
76052;BME280;64751;48.708;9.710;2024-03-17T09:38:38;98110.56;;;12.00;66.71
76052;BME280;64751;48.708;9.710;2024-03-17T09:41:19;98106.59;;;11.97;63.91
76052;BME280;64751;48.708;9.710;2024-03-17T09:43:54;98104.72;;;12.03;64.92
76052;BME280;64751;48.708;9.710;2024-03-17T09:46:23;98099.16;;;12.04;66.30
76052;BME280;64751;48.708;9.710;2024-03-17T09:48:57;98100.19;;;12.13;64.46
76052;BME280;64751;48.708;9.710;2024-03-17T09:51:29;98104.91;;;12.21;64.75
76052;BME280;64751;48.708;9.710;2024-03-17T09:53:58;98103.31;;;12.25;66.42
76052;BME280;64751;48.708;9.710;2024-03-17T09:56:25;98109.91;;;12.28;65.89
76052;BME280;64751;48.708;9.710;2024-03-17T09:58:54;98100.91;;;12.24;64.86
76052;BME280;64751;48.708;9.710;2024-03-17T10:01:21;98099.03;;;12.29;65.46
76052;BME280;64751;48.708;9.710;2024-03-17T10:03:50;98104.56;;;12.38;67.26
76052;BME280;64751;48.708;9.710;2024-03-17T10:06:21;98103.44;;;12.44;66.92
76052;BME280;64751;48.708;9.710;2024-03-17T10:08:51;98106.84;;;12.55;68.05
76052;BME280;64751;48.708;9.710;2024-03-17T10:11:25;98113.72;;;12.56;68.98
76052;BME280;64751;48.708;9.710;2024-03-17T10:14:01;98102.28;;;12.60;69.40
76052;BME280;64751;48.708;9.710;2024-03-17T10:16:35;98103.03;;;12.71;69.47
76052;BME280;64751;48.708;9.710;2024-03-17T10:19:10;98106.97;;;12.73;65.81
76052;BME280;64751;48.708;9.710;2024-03-17T10:21:38;98113.56;;;12.81;66.95
76052;BME280;64751;48.708;9.710;2024-03-17T10:24:08;98098.47;;;12.76;67.36
76052;BME280;64751;48.708;9.710;2024-03-17T10:26:42;98112.19;;;12.88;68.46
76052;BME280;64751;48.708;9.710;2024-03-17T10:29:23;98107.91;;;12.92;67.78
76052;BME280;64751;48.708;9.710;2024-03-17T10:31:57;98098.66;;;12.90;65.06
76052;BME280;64751;48.708;9.710;2024-03-17T10:34:26;98089.97;;;12.84;65.87
76052;BME280;64751;48.708;9.710;2024-03-17T10:37:08;98097.31;;;12.92;65.55
76052;BME280;64751;48.708;9.710;2024-03-17T10:39:38;98091.72;;;12.94;64.33
76052;BME280;64751;48.708;9.710;2024-03-17T10:42:10;98084.38;;;12.86;63.67
76052;BME280;64751;48.708;9.710;2024-03-17T10:44:44;98097.84;;;12.89;64.42
76052;BME280;64751;48.708;9.710;2024-03-17T10:47:21;98088.25;;;12.93;64.24
76052;BME280;64751;48.708;9.710;2024-03-17T10:50:00;98088.75;;;13.00;66.03
76052;BME280;64751;48.708;9.710;2024-03-17T10:52:37;98091.38;;;13.00;64.42
76052;BME280;64751;48.708;9.710;2024-03-17T10:55:21;98094.03;;;13.00;64.69
76052;BME280;64751;48.708;9.710;2024-03-17T10:57:55;98095.34;;;13.03;63.86
76052;BME280;64751;48.708;9.710;2024-03-17T11:00:25;98094.28;;;13.09;64.06
76052;BME280;64751;48.708;9.710;2024-03-17T11:02:55;98094.50;;;13.13;65.06
76052;BME280;64751;48.708;9.710;2024-03-17T11:05:29;98090.69;;;13.24;65.42
76052;BME280;64751;48.708;9.710;2024-03-17T11:08:05;98096.50;;;13.26;64.52
76052;BME280;64751;48.708;9.710;2024-03-17T11:10:35;98095.38;;;13.32;64.97
76052;BME280;64751;48.708;9.710;2024-03-17T11:13:04;98106.44;;;13.44;64.00
76052;BME280;64751;48.708;9.710;2024-03-17T11:15:51;98098.09;;;13.55;65.40
76052;BME280;64751;48.708;9.710;2024-03-17T11:18:42;98103.78;;;13.67;66.61
76052;BME280;64751;48.708;9.710;2024-03-17T11:21:22;98082.50;;;13.72;67.17
76052;BME280;64751;48.708;9.710;2024-03-17T11:23:58;98092.22;;;13.82;66.01
76052;BME280;64751;48.708;9.710;2024-03-17T11:26:34;98079.50;;;13.79;65.88
76052;BME280;64751;48.708;9.710;2024-03-17T11:29:26;98090.63;;;13.81;66.09
76052;BME280;64751;48.708;9.710;2024-03-17T11:31:55;98088.25;;;13.79;65.24
76052;BME280;64751;48.708;9.710;2024-03-17T11:34:36;98086.69;;;13.78;65.36
76052;BME280;64751;48.708;9.710;2024-03-17T11:37:05;98089.56;;;13.82;65.67
76052;BME280;64751;48.708;9.710;2024-03-17T11:39:48;98079.44;;;13.84;64.09
76052;BME280;64751;48.708;9.710;2024-03-17T11:42:18;98075.19;;;13.83;66.63
76052;BME280;64751;48.708;9.710;2024-03-17T11:45:00;98075.38;;;13.92;67.03
76052;BME280;64751;48.708;9.710;2024-03-17T11:47:37;98080.41;;;13.93;64.66
76052;BME280;64751;48.708;9.710;2024-03-17T11:50:10;98074.75;;;14.00;63.05
76052;BME280;64751;48.708;9.710;2024-03-17T11:52:40;98071.94;;;13.91;63.97
76052;BME280;64751;48.708;9.710;2024-03-17T11:55:16;98056.59;;;13.83;62.97
76052;BME280;64751;48.708;9.710;2024-03-17T11:57:45;98053.75;;;13.79;61.83
76052;BME280;64751;48.708;9.710;2024-03-17T12:00:19;98059.63;;;13.76;63.77
76052;BME280;64751;48.708;9.710;2024-03-17T12:02:50;98055.00;;;13.63;63.92
76052;BME280;64751;48.708;9.710;2024-03-17T12:05:22;98047.38;;;13.57;65.10
76052;BME280;64751;48.708;9.710;2024-03-17T12:07:55;98045.84;;;13.51;63.37
76052;BME280;64751;48.708;9.710;2024-03-17T12:10:21;98033.66;;;13.50;66.29
76052;BME280;64751;48.708;9.710;2024-03-17T12:12:49;98034.78;;;13.44;65.87
76052;BME280;64751;48.708;9.710;2024-03-17T12:15:21;98032.97;;;13.39;66.06
76052;BME280;64751;48.708;9.710;2024-03-17T12:17:54;98038.56;;;13.38;64.91
76052;BME280;64751;48.708;9.710;2024-03-17T12:20:27;98031.13;;;13.40;64.22
76052;BME280;64751;48.708;9.710;2024-03-17T12:22:54;98022.56;;;13.43;64.99
76052;BME280;64751;48.708;9.710;2024-03-17T12:25:23;98029.25;;;13.40;64.35
76052;BME280;64751;48.708;9.710;2024-03-17T12:27:52;98022.56;;;13.43;64.96
76052;BME280;64751;48.708;9.710;2024-03-17T12:30:19;98026.81;;;13.44;64.07
76052;BME280;64751;48.708;9.710;2024-03-17T12:32:47;98029.44;;;13.49;64.77
76052;BME280;64751;48.708;9.710;2024-03-17T12:35:17;98023.78;;;13.55;64.98
76052;BME280;64751;48.708;9.710;2024-03-17T12:37:49;98016.16;;;13.49;65.15
76052;BME280;64751;48.708;9.710;2024-03-17T12:40:18;98026.19;;;13.52;64.90
76052;BME280;64751;48.708;9.710;2024-03-17T12:42:51;98024.91;;;13.49;64.79
76052;BME280;64751;48.708;9.710;2024-03-17T12:45:22;98021.72;;;13.47;65.63
76052;BME280;64751;48.708;9.710;2024-03-17T12:47:53;98015.19;;;13.40;63.67
76052;BME280;64751;48.708;9.710;2024-03-17T12:50:28;98014.13;;;13.41;66.50
76052;BME280;64751;48.708;9.710;2024-03-17T12:52:55;98017.06;;;13.39;65.79
76052;BME280;64751;48.708;9.710;2024-03-17T12:55:23;98013.34;;;13.40;67.24
76052;BME280;64751;48.708;9.710;2024-03-17T12:58:07;98010.94;;;13.39;66.10
76052;BME280;64751;48.708;9.710;2024-03-17T13:00:59;98011.53;;;13.36;64.79
76052;BME280;64751;48.708;9.710;2024-03-17T13:03:28;98003.56;;;13.36;62.64
76052;BME280;64751;48.708;9.710;2024-03-17T13:05:59;97996.34;;;13.41;63.36
76052;BME280;64751;48.708;9.710;2024-03-17T13:08:33;98003.16;;;13.47;65.60
76052;BME280;64751;48.708;9.710;2024-03-17T13:11:08;97999.44;;;13.48;66.87
76052;BME280;64751;48.708;9.710;2024-03-17T13:13:41;97997.63;;;13.44;66.73
76052;BME280;64751;48.708;9.710;2024-03-17T13:16:13;98003.44;;;13.46;67.22
76052;BME280;64751;48.708;9.710;2024-03-17T13:18:42;97995.00;;;13.44;67.10
76052;BME280;64751;48.708;9.710;2024-03-17T13:21:16;97997.94;;;13.42;65.25